Time;durP1;ratioP1;P1;durP2;ratioP2;P2;SDS_P1;SDS_P2;PMS_P1;PMS_P2;Temp;Humidity;BMP_temperature;BMP_pressure;BME280_temperature;BME280_humidity;BME280_pressure;Samples;Min_cycle;Max_cycle;Signal;HPM_P1;HPM_P2
2022/02/27 00:00:36;;;;;;;10.43;3.50;;;1.40;92.80;;;;;;5117339;28;20421;-44
2022/02/27 00:03:02;;;;;;;9.67;4.13;;;1.40;92.80;;;;;;5114235;28;20261;-44
2022/02/27 00:05:28;;;;;;;6.90;3.63;;;1.40;92.70;;;;;;5098742;28;20234;-45
2022/02/27 00:07:53;;;;;;;4.57;3.23;;;1.40;92.80;;;;;;5114280;28;20422;-44
2022/02/27 00:10:21;;;;;;;8.23;3.23;;;1.40;92.80;;;;;;5116743;28;20175;-44
2022/02/27 00:12:48;;;;;;;5.73;3.57;;;1.30;92.80;;;;;;5116059;28;20245;-44
2022/02/27 00:15:13;;;;;;;9.20;4.20;;;1.30;92.90;;;;;;5117471;28;20791;-44
2022/02/27 00:17:39;;;;;;;8.50;3.90;;;1.30;92.90;;;;;;5115517;28;20422;-44
2022/02/27 00:20:06;;;;;;;8.10;4.33;;;1.40;92.80;;;;;;5117838;28;20192;-44
2022/02/27 00:22:32;;;;;;;11.40;3.97;;;1.40;92.90;;;;;;5097898;28;20279;-44
2022/02/27 00:24:58;;;;;;;8.03;3.47;;;1.30;92.80;;;;;;5117274;28;20458;-45
2022/02/27 00:27:23;;;;;;;7.03;3.33;;;1.20;92.90;;;;;;5115660;28;20462;-45
2022/02/27 00:29:49;;;;;;;8.97;3.37;;;1.20;93.30;;;;;;5116337;28;20574;-45
2022/02/27 00:32:15;;;;;;;7.97;3.43;;;1.20;93.10;;;;;;5116160;28;20232;-44
2022/02/27 00:34:41;;;;;;;10.30;3.63;;;1.20;93.20;;;;;;5115191;28;20283;-45
2022/02/27 00:37:06;;;;;;;10.37;3.93;;;1.10;93.30;;;;;;5116981;28;20180;-44
2022/02/27 00:39:32;;;;;;;12.37;3.17;;;1.10;93.40;;;;;;5115464;28;20452;-44
2022/02/27 00:41:57;;;;;;;10.90;3.83;;;1.00;93.50;;;;;;5117044;28;20199;-44
2022/02/27 00:44:23;;;;;;;5.53;2.87;;;1.00;93.80;;;;;;5116796;28;20215;-45
2022/02/27 00:46:49;;;;;;;12.60;3.10;;;1.00;94.00;;;;;;5114728;28;20520;-47
2022/02/27 00:49:15;;;;;;;8.73;3.70;;;0.90;94.00;;;;;;5098647;28;20421;-44
2022/02/27 00:51:41;;;;;;;10.30;4.00;;;0.90;94.10;;;;;;5115097;28;20472;-44
2022/02/27 00:54:07;;;;;;;7.57;3.40;;;0.90;94.20;;;;;;5112830;28;20188;-44
2022/02/27 00:56:33;;;;;;;10.00;3.63;;;0.90;94.30;;;;;;5114437;28;20418;-44
2022/02/27 00:58:59;;;;;;;6.77;3.37;;;0.90;94.30;;;;;;5112314;28;20711;-44
2022/02/27 01:01:25;;;;;;;11.53;3.30;;;0.90;94.40;;;;;;5113722;28;20424;-44
2022/02/27 01:03:50;;;;;;;8.60;3.53;;;0.80;94.40;;;;;;5112025;28;20207;-44
2022/02/27 01:06:16;;;;;;;10.47;3.53;;;0.80;94.50;;;;;;5114450;28;20206;-44
2022/02/27 01:08:42;;;;;;;7.87;4.73;;;0.90;94.50;;;;;;5114052;28;20177;-44
2022/02/27 01:11:08;;;;;;;12.57;3.93;;;0.90;94.50;;;;;;5115735;28;20176;-44
2022/02/27 01:13:34;;;;;;;9.07;3.60;;;0.90;94.40;;;;;;5116040;28;20498;-44
2022/02/27 01:15:59;;;;;;;12.10;4.20;;;0.90;94.40;;;;;;5120230;28;20191;-44
2022/02/27 01:18:25;;;;;;;13.20;3.97;;;0.90;94.70;;;;;;5119055;28;20189;-44
2022/02/27 01:20:50;;;;;;;7.60;3.50;;;0.90;94.40;;;;;;5120929;28;20184;-44
2022/02/27 01:23:16;;;;;;;7.17;3.40;;;0.90;94.40;;;;;;5119607;28;20469;-44
2022/02/27 01:25:41;;;;;;;11.77;3.47;;;0.90;94.50;;;;;;5121037;28;20215;-44
2022/02/27 01:28:07;;;;;;;10.17;3.50;;;0.90;94.50;;;;;;5101346;28;20625;-44
2022/02/27 01:30:33;;;;;;;9.37;3.90;;;0.90;94.50;;;;;;5120784;28;20181;-44
2022/02/27 01:32:59;;;;;;;6.60;3.53;;;0.90;94.60;;;;;;5118836;28;20232;-44
2022/02/27 01:35:25;;;;;;;11.37;3.80;;;0.90;94.50;;;;;;5120735;28;20245;-44
2022/02/27 01:37:51;;;;;;;6.70;3.37;;;0.80;94.60;;;;;;5101161;28;20829;-44
2022/02/27 01:40:20;;;;;;;9.23;3.87;;;0.90;94.70;;;;;;5112947;28;20468;-45
2022/02/27 01:42:50;;;;;;;8.00;3.10;;;0.90;94.70;;;;;;5131663;27;20210;-45
2022/02/27 01:45:16;;;;;;;7.50;3.90;;;0.90;94.70;;;;;;5141179;27;20495;-44
2022/02/27 01:47:41;;;;;;;11.20;3.53;;;0.90;94.70;;;;;;5139965;27;20429;-44
2022/02/27 01:56:51;;;;;;;8.70;3.90;;;0.90;94.60;;;;;;5138297;27;20470;-44
2022/02/27 01:59:17;;;;;;;15.63;4.40;;;1.00;94.60;;;;;;5138199;27;20816;-43
2022/02/27 02:01:43;;;;;;;11.50;4.03;;;0.90;94.60;;;;;;5136885;27;20176;-44
2022/02/27 02:04:09;;;;;;;8.03;3.67;;;0.90;94.70;;;;;;5138398;27;20472;-51
2022/02/27 02:06:35;;;;;;;8.00;3.87;;;0.80;94.60;;;;;;5136211;27;20421;-45
2022/02/27 02:09:05;;;;;;;12.03;3.63;;;0.70;94.80;;;;;;5136565;27;20171;-44
2022/02/27 02:11:35;;;;;;;12.03;4.00;;;0.70;95.10;;;;;;5134984;27;20409;-44
2022/02/27 02:14:05;;;;;;;13.23;4.43;;;0.70;95.20;;;;;;5136587;27;20504;-44
2022/02/27 02:16:57;;;;;;;9.10;5.07;;;0.70;95.30;;;;;;5135296;27;20647;-44
2022/02/27 02:19:25;;;;;;;8.47;4.10;;;0.70;95.20;;;;;;5138990;27;20409;-44
2022/02/27 02:21:57;;;;;;;7.70;3.70;;;0.60;95.30;;;;;;5137838;27;20439;-44
2022/02/27 02:24:23;;;;;;;7.93;4.27;;;0.60;95.30;;;;;;5138495;27;20493;-44
2022/02/27 02:26:49;;;;;;;11.17;4.50;;;0.60;95.40;;;;;;5138050;27;20429;-44
2022/02/27 02:29:18;;;;;;;8.73;3.70;;;0.50;95.50;;;;;;5140144;27;20183;-44
2022/02/27 02:31:45;;;;;;;9.13;3.87;;;0.50;95.50;;;;;;5136864;27;20460;-44
2022/02/27 02:34:13;;;;;;;10.00;3.90;;;0.50;95.60;;;;;;5140305;27;20848;-44
2022/02/27 02:36:39;;;;;;;10.83;4.67;;;0.50;95.70;;;;;;5139470;27;20816;-44
2022/02/27 02:39:08;;;;;;;9.00;5.10;;;0.40;95.70;;;;;;5139806;27;20458;-44
2022/02/27 02:41:34;;;;;;;12.30;4.73;;;0.50;95.80;;;;;;5138921;27;20429;-44
2022/02/27 02:44:00;;;;;;;8.70;4.43;;;0.50;95.80;;;;;;5139507;27;20468;-44
2022/02/27 02:46:26;;;;;;;10.00;4.30;;;0.50;95.80;;;;;;5138427;27;20414;-44
2022/02/27 02:48:52;;;;;;;10.27;4.43;;;0.40;95.80;;;;;;5121238;27;20409;-44
2022/02/27 02:51:18;;;;;;;11.73;4.10;;;0.40;95.90;;;;;;5138690;27;20613;-42
2022/02/27 02:53:44;;;;;;;11.87;4.30;;;0.40;96.00;;;;;;5138765;27;20409;-44
2022/02/27 02:56:10;;;;;;;11.53;5.13;;;0.50;96.00;;;;;;5138614;27;20812;-44
2022/02/27 02:58:41;;;;;;;7.90;3.90;;;0.50;96.00;;;;;;5137515;27;20417;-44
2022/02/27 03:01:09;;;;;;;15.07;5.67;;;0.50;95.90;;;;;;5138337;27;20436;-44
2022/02/27 03:03:39;;;;;;;9.47;4.30;;;0.40;95.90;;;;;;5135666;27;20421;-44
2022/02/27 03:06:06;;;;;;;11.13;4.50;;;0.40;96.00;;;;;;5136740;27;20489;-44
2022/02/27 03:08:31;;;;;;;10.13;4.37;;;0.30;96.00;;;;;;5134998;27;20531;-44
2022/02/27 03:10:58;;;;;;;7.43;4.07;;;0.40;96.10;;;;;;5136440;27;20902;-44
2022/02/27 03:13:23;;;;;;;10.83;5.10;;;0.40;96.10;;;;;;5134709;27;20187;-44
2022/02/27 03:15:49;;;;;;;8.90;4.57;;;0.40;96.20;;;;;;5135789;27;20406;-44
2022/02/27 03:18:15;;;;;;;11.27;4.50;;;0.40;96.20;;;;;;5136116;27;20191;-45
2022/02/27 03:20:41;;;;;;;13.67;4.10;;;0.30;96.20;;;;;;5137004;27;20557;-45
2022/02/27 03:23:07;;;;;;;11.10;5.30;;;0.30;96.30;;;;;;5137011;27;20274;-44
2022/02/27 03:25:32;;;;;;;10.30;4.70;;;0.40;96.30;;;;;;5137858;27;20547;-44
2022/02/27 03:27:58;;;;;;;11.03;4.47;;;0.30;96.30;;;;;;5137430;27;20421;-44
2022/02/27 03:30:24;;;;;;;15.67;4.93;;;0.30;96.50;;;;;;5138705;27;20637;-44
2022/02/27 03:32:50;;;;;;;6.53;4.03;;;0.20;96.80;;;;;;5137709;27;20237;-44
2022/02/27 03:35:16;;;;;;;8.70;4.13;;;0.20;96.60;;;;;;5138935;27;20437;-44
2022/02/27 03:37:42;;;;;;;13.87;5.47;;;0.20;96.70;;;;;;5118652;27;20191;-44
2022/02/27 03:40:09;;;;;;;10.03;3.93;;;0.20;96.80;;;;;;5138639;27;20508;-44
2022/02/27 03:42:35;;;;;;;11.67;4.23;;;0.20;96.90;;;;;;5138779;27;20176;-44
2022/02/27 03:45:01;;;;;;;17.70;5.37;;;0.10;96.90;;;;;;5137194;27;20831;-44
2022/02/27 03:47:26;;;;;;;11.67;5.17;;;0.10;97.00;;;;;;5138399;27;20504;-44
2022/02/27 03:49:54;;;;;;;12.27;5.00;;;0.10;97.00;;;;;;5137343;27;20210;-44
2022/02/27 03:52:20;;;;;;;11.30;4.87;;;0.10;97.10;;;;;;5138836;27;20179;-45
2022/02/27 03:54:46;;;;;;;13.63;5.03;;;0.10;97.10;;;;;;5137780;27;20421;-44
2022/02/27 03:57:11;;;;;;;10.83;5.40;;;0.10;97.20;;;;;;5139102;27;20476;-44
2022/02/27 03:59:37;;;;;;;11.17;5.40;;;0.10;97.20;;;;;;5137430;27;20508;-44
2022/02/27 04:02:03;;;;;;;14.47;6.20;;;0.20;97.20;;;;;;5120659;28;20462;-44
2022/02/27 04:04:29;;;;;;;9.60;4.90;;;0.20;97.10;;;;;;5136559;28;20226;-44
2022/02/27 04:06:55;;;;;;;10.17;5.37;;;0.10;97.00;;;;;;5120153;28;20406;-44
2022/02/27 04:09:21;;;;;;;11.27;4.80;;;0.10;97.20;;;;;;5135467;28;20779;-44
2022/02/27 04:11:46;;;;;;;11.43;5.43;;;0.10;97.30;;;;;;5137065;28;20183;-44
2022/02/27 04:14:12;;;;;;;11.17;5.70;;;0.00;97.40;;;;;;5136076;28;20195;-44
2022/02/27 04:16:38;;;;;;;9.80;5.07;;;0.00;97.50;;;;;;5137138;28;20180;-44
2022/02/27 04:19:04;;;;;;;11.80;5.40;;;0.00;97.60;;;;;;5136121;28;20286;-44
2022/02/27 04:21:30;;;;;;;8.37;5.07;;;-0.10;97.60;;;;;;5138635;28;20500;-44
2022/02/27 04:23:56;;;;;;;12.23;5.33;;;-0.10;97.70;;;;;;5136902;28;20243;-44
2022/02/27 04:26:22;;;;;;;13.23;5.67;;;-0.10;97.80;;;;;;5138125;28;20838;-44
2022/02/27 04:28:47;;;;;;;9.83;5.13;;;-0.10;97.80;;;;;;5136872;28;20179;-44
2022/02/27 04:31:13;;;;;;;8.10;5.20;;;-0.10;97.90;;;;;;5138198;28;20172;-44
2022/02/27 04:33:39;;;;;;;8.30;4.87;;;-0.10;97.90;;;;;;5135797;28;20258;-44
2022/02/27 04:36:05;;;;;;;9.50;4.93;;;-0.20;97.90;;;;;;5137951;28;20504;-44
2022/02/27 04:38:30;;;;;;;7.30;5.10;;;-0.20;98.00;;;;;;5136822;28;20507;-44
2022/02/27 04:40:56;;;;;;;9.90;5.37;;;-0.20;98.20;;;;;;5138255;28;20214;-44
2022/02/27 04:43:22;;;;;;;9.73;5.57;;;-0.20;98.20;;;;;;5136418;28;20237;-45
2022/02/27 04:45:48;;;;;;;7.63;5.40;;;-0.20;98.20;;;;;;5138030;28;20893;-44
2022/02/27 04:48:13;;;;;;;11.47;5.60;;;-0.20;98.20;;;;;;5137884;27;20240;-44
2022/02/27 04:50:39;;;;;;;17.43;6.83;;;-0.10;98.20;;;;;;5141725;27;20266;-44
2022/02/27 04:53:05;;;;;;;12.47;5.40;;;-0.10;98.20;;;;;;5141620;27;20176;-44
2022/02/27 04:55:31;;;;;;;13.90;6.30;;;-0.10;98.10;;;;;;5140464;27;20198;-44
2022/02/27 04:57:57;;;;;;;14.67;5.80;;;-0.10;98.10;;;;;;5141126;27;20684;-45
2022/02/27 05:00:23;;;;;;;11.93;6.53;;;-0.10;98.10;;;;;;5139236;27;20431;-44
2022/02/27 05:02:48;;;;;;;13.70;5.93;;;-0.10;98.10;;;;;;5141411;27;20405;-47
2022/02/27 05:05:14;;;;;;;11.23;6.43;;;-0.10;98.20;;;;;;5140834;27;20306;-47
2022/02/27 05:07:40;;;;;;;10.63;5.43;;;-0.10;98.30;;;;;;5125882;27;20219;-47
2022/02/27 05:10:08;;;;;;;13.60;6.13;;;-0.10;98.30;;;;;;5139171;27;20190;-48
2022/02/27 05:12:38;;;;;;;11.10;7.20;;;-0.10;98.40;;;;;;5139593;27;20180;-47
2022/02/27 05:15:06;;;;;;;14.87;6.13;;;-0.10;98.40;;;;;;5138649;27;20433;-47
2022/02/27 05:17:32;;;;;;;12.37;6.10;;;-0.10;98.40;;;;;;5139811;27;20720;-47
2022/02/27 05:19:58;;;;;;;12.53;7.77;;;0.00;98.40;;;;;;5138092;27;20455;-47
2022/02/27 05:22:23;;;;;;;14.27;7.00;;;0.00;98.30;;;;;;5140600;27;20413;-47
2022/02/27 05:24:50;;;;;;;16.37;6.20;;;0.00;98.30;;;;;;5139755;27;20575;-47
2022/02/27 05:27:15;;;;;;;16.63;7.23;;;0.00;98.30;;;;;;5141376;27;20899;-47
2022/02/27 05:29:41;;;;;;;11.80;6.80;;;0.00;98.60;;;;;;5139424;27;20442;-47
2022/02/27 05:32:07;;;;;;;17.90;8.20;;;0.00;98.40;;;;;;5139901;27;20296;-47
2022/02/27 05:34:32;;;;;;;13.60;6.83;;;0.00;98.40;;;;;;5138552;27;20573;-46
2022/02/27 05:36:59;;;;;;;9.33;6.70;;;-0.10;98.40;;;;;;5139642;27;20257;-46
2022/02/27 05:39:25;;;;;;;16.20;8.13;;;0.00;98.50;;;;;;5138542;27;20203;-46
2022/02/27 05:41:51;;;;;;;10.63;7.50;;;0.00;98.60;;;;;;5121597;27;20705;-46
2022/02/27 05:44:17;;;;;;;10.40;6.87;;;0.00;98.60;;;;;;5120378;27;20540;-46
2022/02/27 05:46:42;;;;;;;11.13;7.13;;;0.00;98.50;;;;;;5139860;27;20441;-46
2022/02/27 05:49:08;;;;;;;10.10;6.50;;;0.00;98.50;;;;;;5139959;27;20172;-46
2022/02/27 05:51:34;;;;;;;13.37;7.10;;;0.00;98.50;;;;;;5139671;27;20299;-46
2022/02/27 05:54:00;;;;;;;11.33;6.60;;;-0.10;98.50;;;;;;5140834;27;20412;-46
2022/02/27 05:56:26;;;;;;;11.63;8.10;;;-0.10;98.50;;;;;;5139614;27;20426;-46
2022/02/27 05:58:52;;;;;;;12.97;7.20;;;-0.10;98.60;;;;;;5140548;27;20249;-46
2022/02/27 06:01:18;;;;;;;15.03;7.73;;;-0.10;98.60;;;;;;5120648;27;20211;-46
2022/02/27 06:03:44;;;;;;;9.50;7.70;;;-0.10;98.60;;;;;;5122813;27;20417;-46
2022/02/27 06:06:10;;;;;;;13.33;7.53;;;-0.10;98.70;;;;;;5138996;27;20488;-46
2022/02/27 06:08:35;;;;;;;11.57;6.30;;;-0.10;98.70;;;;;;5140736;27;20258;-46
2022/02/27 06:11:02;;;;;;;11.00;7.43;;;-0.10;98.70;;;;;;5138256;27;20433;-46
2022/02/27 06:13:28;;;;;;;15.93;7.43;;;-0.10;98.70;;;;;;5139811;27;20200;-46
2022/02/27 06:15:54;;;;;;;15.33;6.83;;;-0.10;98.70;;;;;;5138974;27;20877;-47
2022/02/27 06:18:20;;;;;;;10.70;6.83;;;-0.10;98.70;;;;;;5140719;27;20504;-46
2022/02/27 06:20:46;;;;;;;14.23;8.00;;;-0.10;98.70;;;;;;5139862;27;20719;-47
2022/02/27 06:23:12;;;;;;;14.50;8.33;;;-0.10;98.70;;;;;;5139157;27;20260;-46
2022/02/27 06:25:38;;;;;;;15.13;8.47;;;0.00;98.70;;;;;;5140208;27;20464;-46
2022/02/27 06:28:04;;;;;;;11.43;8.53;;;0.00;98.60;;;;;;5138766;27;20432;-46
2022/02/27 06:30:31;;;;;;;12.03;7.80;;;-0.10;98.60;;;;;;5122472;27;20508;-46
2022/02/27 06:32:56;;;;;;;17.87;8.10;;;0.00;98.70;;;;;;5136978;27;20469;-46
2022/02/27 06:35:24;;;;;;;9.20;7.30;;;0.10;99.00;;;;;;5137883;27;20416;-46
2022/02/27 06:37:50;;;;;;;14.23;7.70;;;0.30;98.80;;;;;;5135928;27;20590;-46
2022/02/27 06:40:18;;;;;;;10.50;7.70;;;0.40;98.60;;;;;;5137203;27;20444;-47
2022/02/27 06:42:43;;;;;;;11.67;6.90;;;0.60;98.10;;;;;;5136845;27;20429;-46
2022/02/27 06:45:11;;;;;;;15.70;7.80;;;0.70;98.00;;;;;;5138144;27;20952;-47
2022/02/27 06:47:37;;;;;;;11.57;7.77;;;1.00;98.00;;;;;;5138026;27;20426;-47
2022/02/27 06:50:03;;;;;;;11.77;7.97;;;1.20;97.60;;;;;;5139108;27;20849;-47
2022/02/27 06:52:29;;;;;;;9.70;7.10;;;1.40;96.90;;;;;;5138460;27;20451;-47
2022/02/27 06:54:55;;;;;;;13.20;8.00;;;1.40;96.30;;;;;;5138128;27;20420;-47
2022/02/27 06:57:20;;;;;;;8.67;7.20;;;1.40;96.20;;;;;;5137937;27;20211;-47
2022/02/27 06:59:46;;;;;;;10.93;7.60;;;1.40;96.00;;;;;;5139445;27;20180;-47
2022/02/27 07:02:13;;;;;;;10.53;7.60;;;1.50;96.00;;;;;;5139982;27;20186;-47
2022/02/27 07:04:39;;;;;;;13.73;7.60;;;1.50;96.10;;;;;;5138414;27;20222;-47
2022/02/27 07:07:05;;;;;;;10.60;6.77;;;1.50;96.10;;;;;;5139688;27;20420;-47
2022/02/27 07:09:30;;;;;;;13.97;8.10;;;1.60;95.90;;;;;;5137438;27;20184;-46
2022/02/27 07:11:56;;;;;;;12.50;8.13;;;1.70;95.90;;;;;;5119962;27;20183;-47
2022/02/27 07:14:22;;;;;;;13.70;7.93;;;1.80;95.60;;;;;;5118365;27;20187;-47
2022/02/27 07:16:48;;;;;;;11.70;7.57;;;1.90;95.30;;;;;;5137978;27;20265;-47
2022/02/27 07:19:14;;;;;;;12.23;7.23;;;2.20;95.00;;;;;;5136199;27;20268;-47
2022/02/27 07:21:40;;;;;;;12.20;8.20;;;2.40;94.70;;;;;;5137391;27;20441;-47
2022/02/27 07:24:06;;;;;;;13.40;8.57;;;2.70;94.30;;;;;;5137860;27;20468;-43
2022/02/27 07:26:32;;;;;;;10.90;7.90;;;3.00;93.60;;;;;;5140082;27;20211;-43
2022/02/27 07:28:58;;;;;;;11.57;7.60;;;3.20;93.00;;;;;;5138492;27;20838;-41
2022/02/27 07:31:24;;;;;;;12.00;8.00;;;3.40;92.80;;;;;;5138155;27;20507;-40
2022/02/27 07:33:50;;;;;;;10.77;8.17;;;3.70;92.00;;;;;;5117563;28;20230;-40
2022/02/27 07:36:16;;;;;;;11.67;7.67;;;3.80;91.50;;;;;;5118685;28;20257;-41
2022/02/27 07:38:42;;;;;;;10.80;8.07;;;3.90;90.90;;;;;;5117199;28;20799;-40
2022/02/27 07:41:07;;;;;;;10.87;8.47;;;4.00;90.90;;;;;;5119416;28;20430;-40
2022/02/27 07:43:33;;;;;;;12.30;8.03;;;4.20;91.00;;;;;;5116971;28;20557;-43
2022/02/27 07:45:59;;;;;;;11.90;7.43;;;4.30;90.30;;;;;;5118717;28;20239;-40
2022/02/27 07:48:25;;;;;;;10.50;8.23;;;4.50;90.00;;;;;;5117264;28;20188;-41
2022/02/27 07:50:51;;;;;;;12.40;8.80;;;4.70;89.20;;;;;;5101139;28;20176;-40
2022/02/27 07:53:17;;;;;;;10.57;7.93;;;5.10;87.80;;;;;;5117761;28;20426;-41
2022/02/27 07:55:43;;;;;;;13.33;7.80;;;5.50;86.50;;;;;;5118197;28;20180;-41
2022/02/27 07:58:11;;;;;;;8.53;7.63;;;6.00;84.00;;;;;;5117376;28;20198;-42
2022/02/27 08:00:37;;;;;;;10.80;8.70;;;6.30;83.40;;;;;;5118445;28;20186;-43
2022/02/27 08:03:03;;;;;;;8.97;7.70;;;7.00;80.40;;;;;;5116005;28;20469;-42
2022/02/27 08:05:29;;;;;;;7.47;6.67;;;7.60;78.10;;;;;;5116850;28;20460;-41
2022/02/27 08:07:57;;;;;;;9.40;7.53;;;8.30;74.60;;;;;;5116230;28;20426;-42
2022/02/27 08:10:23;;;;;;;10.00;7.00;;;9.00;71.90;;;;;;5117063;28;20664;-42
2022/02/27 08:12:49;;;;;;;8.17;7.33;;;9.80;68.30;;;;;;5097746;28;20529;-41
2022/02/27 08:15:16;;;;;;;9.03;7.20;;;10.60;61.90;;;;;;5098288;28;20525;-42
2022/02/27 08:17:42;;;;;;;7.90;6.50;;;11.00;60.40;;;;;;5081892;28;20259;-44
2022/02/27 08:20:09;;;;;;;9.47;7.57;;;11.40;58.70;;;;;;5099923;28;20441;-43
2022/02/27 08:22:36;;;;;;;9.67;7.20;;;12.30;56.10;;;;;;5116683;28;20426;-41
2022/02/27 08:25:04;;;;;;;10.50;7.00;;;12.70;53.10;;;;;;5122129;28;20458;-41
2022/02/27 08:27:29;;;;;;;9.60;7.23;;;12.70;51.40;;;;;;5120131;28;20415;-41
2022/02/27 08:29:55;;;;;;;7.70;6.90;;;12.40;51.00;;;;;;5122681;28;20808;-42
2022/02/27 08:32:21;;;;;;;7.50;6.70;;;12.30;51.50;;;;;;5130614;27;20634;-45
2022/02/27 08:34:46;;;;;;;8.67;7.70;;;13.20;50.60;;;;;;5124465;27;20523;-44
2022/02/27 08:37:12;;;;;;;7.90;6.57;;;13.70;48.70;;;;;;5139444;27;20265;-44
2022/02/27 08:39:38;;;;;;;8.00;6.47;;;14.00;47.40;;;;;;5140964;27;20179;-43
2022/02/27 08:42:04;;;;;;;8.67;6.70;;;14.00;46.40;;;;;;5140899;27;20179;-41
2022/02/27 08:44:34;;;;;;;7.50;6.63;;;14.00;45.50;;;;;;5139208;27;20973;-42
2022/02/27 08:47:03;;;;;;;8.33;6.53;;;13.80;45.20;;;;;;5122188;27;20423;-41
2022/02/27 08:49:30;;;;;;;8.43;6.57;;;13.80;45.70;;;;;;5138591;27;20520;-42
2022/02/27 08:51:55;;;;;;;7.77;6.77;;;14.40;45.90;;;;;;5141161;27;20413;-41
2022/02/27 08:54:21;;;;;;;7.60;6.73;;;14.90;44.70;;;;;;5132286;27;20830;-42
2022/02/27 08:56:47;;;;;;;11.30;7.57;;;15.10;43.70;;;;;;5139678;27;20665;-42
2022/02/27 08:59:12;;;;;;;8.40;7.60;;;15.30;42.80;;;;;;5137626;27;20493;-44
2022/02/27 09:01:38;;;;;;;8.63;7.27;;;15.00;42.50;;;;;;5139570;27;20251;-42
2022/02/27 09:04:04;;;;;;;9.50;8.40;;;14.50;43.00;;;;;;5138016;27;20215;-43
2022/02/27 09:06:30;;;;;;;8.90;6.97;;;14.90;43.10;;;;;;5140072;27;20209;-43
2022/02/27 09:08:56;;;;;;;9.00;6.87;;;14.60;42.40;;;;;;5138779;27;20448;-42
2022/02/27 09:11:21;;;;;;;8.33;7.53;;;14.60;43.00;;;;;;5140480;27;20609;-42
2022/02/27 09:13:47;;;;;;;8.30;6.93;;;14.50;42.60;;;;;;5138058;27;20179;-42
2022/02/27 09:16:14;;;;;;;7.33;6.63;;;14.40;42.20;;;;;;5141087;27;20177;-43
2022/02/27 09:18:41;;;;;;;7.80;6.40;;;13.80;42.00;;;;;;5131911;27;20180;-44
2022/02/27 09:21:07;;;;;;;8.83;6.40;;;13.80;42.80;;;;;;5129663;27;20425;-41
2022/02/27 09:23:33;;;;;;;8.13;6.80;;;13.80;42.60;;;;;;5128643;27;20409;-41
2022/02/27 09:25:59;;;;;;;9.13;6.90;;;13.70;42.60;;;;;;5112083;27;20460;-42
2022/02/27 09:28:24;;;;;;;9.00;6.10;;;13.50;42.20;;;;;;5130162;27;20404;-43
2022/02/27 09:30:50;;;;;;;6.27;5.60;;;13.00;42.20;;;;;;5131198;27;20333;-41
2022/02/27 09:33:16;;;;;;;7.13;5.87;;;13.10;42.50;;;;;;5134398;27;20284;-43
2022/02/27 09:35:42;;;;;;;9.73;6.50;;;13.20;42.30;;;;;;5140335;27;20884;-42
2022/02/27 09:38:08;;;;;;;7.70;5.27;;;12.60;41.70;;;;;;5142978;27;20191;-43
2022/02/27 09:40:34;;;;;;;6.30;5.00;;;12.70;42.90;;;;;;5140025;27;20527;-42
2022/02/27 09:43:00;;;;;;;7.23;4.73;;;13.30;41.50;;;;;;5141483;27;20258;-41
2022/02/27 09:45:26;;;;;;;6.80;4.90;;;12.60;40.80;;;;;;5140764;27;20227;-43
2022/02/27 09:47:53;;;;;;;5.00;4.40;;;12.70;41.40;;;;;;5141801;27;20180;-43
2022/02/27 09:50:20;;;;;;;6.83;4.60;;;12.80;41.20;;;;;;5140914;27;20518;-42
2022/02/27 09:52:46;;;;;;;4.90;4.27;;;13.30;40.90;;;;;;5141842;27;20413;-42
2022/02/27 09:55:13;;;;;;;5.93;4.33;;;14.00;40.30;;;;;;5140098;27;20503;-42
2022/02/27 09:57:40;;;;;;;5.13;4.30;;;14.40;38.70;;;;;;5140700;27;20168;-42
2022/02/27 10:00:10;;;;;;;4.40;4.00;;;14.40;38.20;;;;;;5137291;27;20474;-41
2022/02/27 10:03:03;;;;;;;6.00;4.37;;;14.30;37.90;;;;;;5138134;27;20416;-41
2022/02/27 10:05:29;;;;;;;6.20;4.80;;;13.50;37.70;;;;;;5118431;27;20471;-42
2022/02/27 10:08:03;;;;;;;5.03;4.10;;;13.70;38.70;;;;;;5137949;27;20491;-44
2022/02/27 10:10:29;;;;;;;4.60;4.20;;;14.20;38.10;;;;;;5135008;27;20421;-43
2022/02/27 10:12:55;;;;;;;4.87;4.33;;;14.30;37.80;;;;;;5126816;27;20541;-42
2022/02/27 10:15:21;;;;;;;4.33;3.93;;;13.70;37.20;;;;;;5115876;28;20437;-42
2022/02/27 10:17:51;;;;;;;5.30;4.37;;;13.60;37.80;;;;;;5119777;28;20523;-42
2022/02/27 10:20:19;;;;;;;5.50;4.70;;;13.00;37.40;;;;;;5118671;28;20182;-44
2022/02/27 10:22:47;;;;;;;5.80;4.53;;;12.70;37.50;;;;;;5117905;28;20429;-42
2022/02/27 10:25:24;;;;;;;6.40;4.40;;;12.50;37.30;;;;;;5117164;28;20909;-42
2022/02/27 10:27:55;;;;;;;5.70;5.17;;;12.20;38.00;;;;;;5118682;28;20410;-41
2022/02/27 10:30:23;;;;;;;5.57;4.60;;;12.00;38.60;;;;;;5082370;28;20417;-42
2022/02/27 10:32:59;;;;;;;4.10;3.80;;;12.40;38.40;;;;;;5116861;28;20468;-42
2022/02/27 10:35:40;;;;;;;6.10;4.77;;;12.80;38.10;;;;;;5097973;28;20578;-44
2022/02/27 10:38:27;;;;;;;6.93;4.83;;;12.90;37.10;;;;;;5117400;28;20413;-42
2022/02/27 10:40:53;;;;;;;5.17;4.57;;;12.80;37.10;;;;;;5115243;28;20438;-41
2022/02/27 10:43:19;;;;;;;7.53;4.33;;;13.00;37.40;;;;;;5099445;28;20482;-43
2022/02/27 10:46:04;;;;;;;6.43;5.20;;;13.00;37.30;;;;;;5116016;28;20513;-43
2022/02/27 10:48:31;;;;;;;5.60;4.60;;;13.20;36.80;;;;;;5103480;28;20574;-42
2022/02/27 10:51:15;;;;;;;4.33;3.93;;;13.90;36.90;;;;;;5116802;28;20752;-45
2022/02/27 10:53:43;;;;;;;5.23;4.13;;;14.50;35.30;;;;;;5101642;28;20413;-41
2022/02/27 10:56:11;;;;;;;6.60;4.40;;;14.50;36.10;;;;;;5083487;28;20438;-41
2022/02/27 10:58:45;;;;;;;4.40;3.90;;;15.00;36.50;;;;;;5099040;28;20745;-43
2022/02/27 11:01:19;;;;;;;5.03;4.60;;;15.40;37.20;;;;;;5082356;28;20731;-43
2022/02/27 11:03:47;;;;;;;4.20;3.53;;;16.30;34.20;;;;;;5117690;28;20691;-43
2022/02/27 11:06:14;;;;;;;3.73;3.43;;;16.40;32.80;;;;;;5114438;28;20473;-41
2022/02/27 11:08:44;;;;;;;3.90;3.30;;;17.40;35.10;;;;;;5098987;28;20824;-41
2022/02/27 11:11:10;;;;;;;3.53;2.87;;;18.30;32.00;;;;;;5116564;28;20436;-45
2022/02/27 11:13:36;;;;;;;5.63;3.60;;;18.80;33.90;;;;;;5097852;28;20418;-45
2022/02/27 11:16:03;;;;;;;3.47;3.03;;;19.30;30.90;;;;;;5116848;28;20197;-42
2022/02/27 11:18:29;;;;;;;3.73;2.73;;;20.10;29.10;;;;;;5115402;28;20469;-43
2022/02/27 11:20:56;;;;;;;5.00;3.80;;;20.40;28.50;;;;;;5099685;28;20410;-43
2022/02/27 11:23:23;;;;;;;3.60;3.23;;;20.70;28.50;;;;;;5098287;28;20860;-45
2022/02/27 11:25:50;;;;;;;4.40;4.00;;;21.30;28.00;;;;;;5099722;28;20495;-44
2022/02/27 11:28:19;;;;;;;3.87;3.57;;;21.20;27.00;;;;;;5116311;28;20527;-44
2022/02/27 11:30:48;;;;;;;5.27;4.13;;;21.20;27.90;;;;;;5117047;28;20513;-42
2022/02/27 11:33:22;;;;;;;5.70;3.53;;;21.90;28.30;;;;;;5081349;28;20494;-44
2022/02/27 11:35:52;;;;;;;3.57;3.13;;;23.80;30.50;;;;;;5082451;28;20835;-44
2022/02/27 11:38:30;;;;;;;5.77;3.20;;;25.90;29.90;;;;;;5115484;28;20730;-41
2022/02/27 11:41:11;;;;;;;2.97;2.70;;;27.80;28.50;;;;;;5117564;28;20427;-44
2022/02/27 11:43:50;;;;;;;3.93;3.40;;;29.70;27.80;;;;;;5116969;28;20412;-45
2022/02/27 11:46:37;;;;;;;3.87;3.47;;;30.90;26.60;;;;;;5115840;28;20534;-45
2022/02/27 11:49:10;;;;;;;3.53;3.20;;;31.90;26.30;;;;;;5090702;28;20837;-42
2022/02/27 11:51:36;;;;;;;3.97;3.27;;;31.60;26.10;;;;;;5113976;28;20417;-43
2022/02/27 11:54:07;;;;;;;5.80;4.47;;;30.80;26.40;;;;;;5116640;28;20418;-44
2022/02/27 11:56:34;;;;;;;4.50;3.80;;;30.20;26.10;;;;;;5115205;28;20224;-43
2022/02/27 11:59:00;;;;;;;4.33;3.77;;;29.80;26.50;;;;;;5116350;28;20374;-44
2022/02/27 12:01:44;;;;;;;4.00;3.70;;;29.40;27.00;;;;;;5115431;28;20423;-42
2022/02/27 12:04:19;;;;;;;5.27;4.00;;;29.40;26.50;;;;;;5116665;28;20804;-43
2022/02/27 12:07:09;;;;;;;3.80;3.50;;;29.40;26.50;;;;;;5097489;28;20391;-42
2022/02/27 12:09:50;;;;;;;6.40;4.53;;;29.50;26.50;;;;;;5115612;28;20376;-42
2022/02/27 12:12:36;;;;;;;5.97;3.73;;;29.90;25.80;;;;;;5113654;28;20701;-41
2022/02/27 12:15:34;;;;;;;6.27;4.10;;;29.70;26.70;;;;;;5113797;28;20466;-42
2022/02/27 12:18:05;;;;;;;4.40;4.00;;;29.80;25.90;;;;;;5115711;28;20669;-43
2022/02/27 12:20:43;;;;;;;5.13;3.60;;;30.00;25.60;;;;;;5111593;28;21215;-44
2022/02/27 12:23:32;;;;;;;6.10;3.50;;;30.30;25.50;;;;;;5115580;28;20376;-45
2022/02/27 12:25:59;;;;;;;4.17;3.53;;;30.40;25.40;;;;;;5102312;28;20415;-43
2022/02/27 12:28:51;;;;;;;3.90;3.57;;;30.40;25.20;;;;;;5115483;28;20389;-42
2022/02/27 12:31:27;;;;;;;3.63;3.33;;;30.50;25.40;;;;;;5113920;28;20759;-43
2022/02/27 12:33:54;;;;;;;3.93;3.63;;;31.10;25.90;;;;;;5096822;28;20460;-43
2022/02/27 12:36:36;;;;;;;4.37;3.87;;;31.30;25.40;;;;;;5112463;28;20487;-42
2022/02/27 12:39:05;;;;;;;4.40;3.40;;;31.50;25.10;;;;;;5096741;28;20527;-43
2022/02/27 12:41:40;;;;;;;4.40;4.00;;;31.70;25.10;;;;;;5113004;28;20563;-45
2022/02/27 12:44:09;;;;;;;4.00;3.70;;;31.90;24.80;;;;;;5115181;28;20405;-42
2022/02/27 12:46:35;;;;;;;3.93;3.57;;;32.20;25.70;;;;;;5115508;28;20423;-45
2022/02/27 12:51:46;;;;;;;4.23;3.90;;;32.70;24.60;;;;;;5115549;28;20436;-43
2022/02/27 12:54:20;;;;;;;4.63;3.70;;;32.90;24.40;;;;;;5117178;28;20421;-43
2022/02/27 12:57:00;;;;;;;4.33;3.93;;;33.10;24.70;;;;;;5115564;28;20207;-42
2022/02/27 12:59:28;;;;;;;4.47;4.07;;;33.20;23.90;;;;;;5116722;28;20382;-42